»·PEaware :: SWA321 KSAN-KSBP

SWA321 :: KSAN-KSBP

FLIGHT INFORMATION

Flight Status: Arrived
Operator:
Southwest Airlines
More flights by this operator :: More flights under this callsign
Pilot: Lamont A. (24221)
Aircraft: BOEING 737-800
(B738)
More flights by this aircraft type
Origin: KSAN San Diego Intl-Lindbergh
United States
Destination: KSBP San Luis Co Regl
United States
More flights between these airports :: More routes between these airports
Route: PEBLE6 PEBLE SXC BENET IKAYE RZS CADAB
File this flight plan on PilotEdge
Remarks: im new
Altitude:
(Current/Filed)
32,000ft
Speed:
(Current/Filed)
440kts
Departed: 12-Nov-19 09:18 PM
Arrived: 12-Nov-19 11:03 PM
Distance/Time
Traveled:
228nm/1:45
Distance/Time
To Go:
Arrived

Flight Plot

Page will automatically refresh every two minutes.

Flight plan parsing failed; only flown route is shown


Map Options




Map Legend


Flown Route
Filed Route
Departure Airport
Arrival Airport
Navaid (VOR, NDB)
Fix

Horizontal Profiles

Position Reports

Time Latitude Longitude Heading Altitude Ground
Speed
12-Nov-19 20:41 32.732852 -117.201822 82 25ft 0kts
12-Nov-19 20:42 32.732852 -117.201822 82 25ft 0kts
12-Nov-19 20:43 32.732852 -117.201822 82 25ft 0kts
12-Nov-19 20:44 32.732852 -117.201822 82 25ft 0kts
12-Nov-19 20:45 32.732852 -117.201822 82 25ft 0kts
12-Nov-19 20:46 32.732852 -117.201822 82 25ft 0kts
12-Nov-19 20:47 32.732852 -117.201822 82 25ft 0kts
12-Nov-19 20:48 32.732852 -117.201822 82 25ft 0kts
12-Nov-19 20:49 32.732852 -117.201822 82 25ft 0kts
12-Nov-19 20:50 32.732852 -117.201822 82 25ft 0kts
12-Nov-19 20:51 32.732852 -117.201822 82 25ft 0kts
12-Nov-19 20:52 32.732852 -117.201822 82 25ft 0kts
12-Nov-19 20:53 32.732852 -117.201822 82 25ft 0kts
12-Nov-19 20:54 32.732852 -117.201822 82 25ft 0kts
12-Nov-19 20:55 32.732852 -117.201822 82 25ft 0kts
12-Nov-19 20:56 32.732852 -117.201822 82 25ft 0kts
12-Nov-19 20:57 32.732852 -117.201822 82 25ft 0kts
12-Nov-19 20:58 32.732852 -117.201822 82 25ft 0kts
12-Nov-19 20:59 32.732852 -117.201822 82 25ft 0kts
12-Nov-19 21:00 32.732852 -117.201822 82 25ft 0kts
12-Nov-19 21:01 32.732852 -117.201822 82 25ft 0kts
12-Nov-19 21:02 32.732852 -117.201822 82 25ft 0kts
12-Nov-19 21:03 32.732852 -117.201822 82 25ft 0kts
12-Nov-19 21:04 32.732845 -117.201896 89 25ft 2kts
12-Nov-19 21:05 32.732836 -117.202537 89 25ft 1kts
12-Nov-19 21:06 32.732718 -117.202679 19 25ft 0kts
12-Nov-19 21:07 32.732718 -117.202679 19 25ft 0kts
12-Nov-19 21:08 32.732718 -117.202679 19 25ft 0kts
12-Nov-19 21:09 32.732718 -117.202679 19 25ft 0kts
12-Nov-19 21:10 32.733878 -117.202715 4 25ft 10kts
12-Nov-19 21:11 32.735104 -117.200372 106 25ft 25kts
12-Nov-19 21:12 32.732677 -117.190318 105 25ft 36kts
12-Nov-19 21:13 32.730289 -117.180390 106 25ft 23kts
12-Nov-19 21:14 32.729518 -117.176923 86 25ft 0kts
12-Nov-19 21:15 32.729518 -117.176923 86 25ft 0kts
12-Nov-19 21:16 32.729518 -117.176918 86 25ft 0kts
12-Nov-19 21:17 32.733482 -117.189249 286 26ft 156kts
12-Nov-19 21:18 32.763520 -117.235169 336 2469ft 234kts
12-Nov-19 21:19 32.825492 -117.273578 330 6489ft 267kts
12-Nov-19 21:20 32.877498 -117.337819 292 10445ft 294kts
12-Nov-19 21:21 32.910114 -117.436237 306 13718ft 337kts
12-Nov-19 21:22 32.969897 -117.525751 312 16185ft 331kts
12-Nov-19 21:30 32.732851 -117.201835 82 25ft 0kts
12-Nov-19 21:31 32.732851 -117.201835 82 25ft 0kts
12-Nov-19 21:32 32.732851 -117.201835 82 25ft 0kts
12-Nov-19 21:34 32.732851 -117.201835 82 25ft 0kts
12-Nov-19 21:35 32.732851 -117.201835 82 25ft 0kts
12-Nov-19 21:36 32.732851 -117.201835 82 25ft 0kts
12-Nov-19 21:37 32.732851 -117.201835 82 25ft 0kts
12-Nov-19 21:38 32.732851 -117.201835 82 25ft 0kts
12-Nov-19 21:39 32.732851 -117.201835 82 25ft 0kts
12-Nov-19 21:40 32.732851 -117.201835 82 25ft 0kts
12-Nov-19 21:41 32.732851 -117.201835 82 25ft 0kts
12-Nov-19 21:42 32.732851 -117.201835 82 25ft 0kts
12-Nov-19 21:43 32.732851 -117.201835 82 25ft 0kts
12-Nov-19 21:44 32.732851 -117.201835 82 25ft 0kts
12-Nov-19 21:45 32.732851 -117.201835 82 25ft 0kts
12-Nov-19 21:46 32.732851 -117.201835 82 25ft 0kts
12-Nov-19 21:47 32.732851 -117.201835 82 25ft 0kts
12-Nov-19 21:48 32.732851 -117.201835 82 25ft 0kts
12-Nov-19 21:49 32.732851 -117.201835 82 25ft 0kts
12-Nov-19 21:50 32.732851 -117.201835 82 25ft 0kts
12-Nov-19 21:51 32.732851 -117.201835 82 25ft 0kts
12-Nov-19 21:52 32.732851 -117.201835 82 25ft 0kts
12-Nov-19 21:53 32.732851 -117.201835 82 25ft 0kts
12-Nov-19 21:53 32.732847 -117.202109 87 25ft 2kts
12-Nov-19 21:55 32.732766 -117.202664 9 25ft 1kts
12-Nov-19 21:56 32.732720 -117.202678 19 25ft 0kts
12-Nov-19 21:56 32.732720 -117.202678 19 25ft 0kts
12-Nov-19 21:58 32.732720 -117.202678 19 25ft 0kts
12-Nov-19 21:58 32.733443 -117.202685 351 25ft 18kts
12-Nov-19 21:59 32.734123 -117.196324 106 25ft 35kts
12-Nov-19 22:01 32.731036 -117.183573 105 25ft 35kts
12-Nov-19 22:01 32.729538 -117.177019 86 25ft 0kts
12-Nov-19 22:02 32.729538 -117.177019 86 25ft 0kts
12-Nov-19 22:03 32.729692 -117.176391 61 25ft 12kts
12-Nov-19 22:04 32.733716 -117.190300 286 26ft 159kts
12-Nov-19 22:05 32.753196 -117.242050 304 2380ft 211kts
12-Nov-19 22:06 32.789820 -117.308476 304 5154ft 263kts
12-Nov-19 22:07 32.830863 -117.383990 304 8873ft 283kts
12-Nov-19 22:08 32.888649 -117.454271 321 11663ft 323kts
12-Nov-19 22:09 32.958534 -117.525401 321 15159ft 339kts
12-Nov-19 22:10 33.014334 -117.611683 304 18412ft 355kts
12-Nov-19 22:11 33.062485 -117.705651 304 21262ft 365kts
12-Nov-19 22:12 33.115200 -117.808935 304 24029ft 375kts
12-Nov-19 22:13 33.174192 -117.906769 301 26392ft 386kts
12-Nov-19 22:14 33.221250 -118.024655 298 28639ft 399kts
12-Nov-19 22:15 33.268214 -118.144803 298 30694ft 408kts
12-Nov-19 22:16 33.316345 -118.268377 297 32119ft 420kts
12-Nov-19 22:17 33.365650 -118.395546 297 32118ft 421kts
12-Nov-19 22:18 33.425182 -118.514861 305 32117ft 418kts
12-Nov-19 22:19 33.487446 -118.632750 305 32116ft 418kts
12-Nov-19 22:20 33.547180 -118.746415 305 32119ft 419kts
12-Nov-19 22:21 33.630044 -118.840285 330 32115ft 414kts
12-Nov-19 22:22 33.736629 -118.884854 344 32094ft 415kts
12-Nov-19 22:23 33.846681 -118.918542 343 32089ft 416kts
12-Nov-19 22:24 33.950589 -118.950607 343 32088ft 417kts
12-Nov-19 22:25 34.061401 -118.985476 339 32084ft 413kts
12-Nov-19 22:26 34.149082 -119.048623 317 32096ft 408kts
12-Nov-19 22:27 34.212420 -119.152981 301 32093ft 409kts
12-Nov-19 22:28 34.272611 -119.277104 301 31913ft 413kts
12-Nov-19 22:29 34.329028 -119.393922 302 29466ft 415kts
12-Nov-19 22:30 34.384787 -119.509792 302 27022ft 401kts
12-Nov-19 22:31 34.437677 -119.620037 303 24597ft 385kts
12-Nov-19 22:32 34.487555 -119.724400 302 22668ft 362kts
12-Nov-19 22:33 34.549408 -119.814544 319 18825ft 352kts
12-Nov-19 22:34 34.617522 -119.888639 320 16820ft 331kts
12-Nov-19 22:35 34.684086 -119.961346 320 14934ft 327kts
12-Nov-19 22:36 34.747617 -120.030910 319 13113ft 314kts
12-Nov-19 22:37 34.810872 -120.100338 319 11292ft 300kts
12-Nov-19 22:38 34.867574 -120.162724 319 10367ft 263kts
12-Nov-19 22:39 34.920916 -120.221517 318 9265ft 261kts
12-Nov-19 22:40 34.975718 -120.281980 319 7900ft 254kts
12-Nov-19 22:41 35.025092 -120.336548 317 6681ft 228kts
12-Nov-19 22:42 35.073181 -120.389833 317 4527ft 246kts
12-Nov-19 22:43 35.121398 -120.443415 313 3193ft 215kts
12-Nov-19 22:44 35.157019 -120.494911 300 3218ft 200kts
12-Nov-19 22:45 35.184600 -120.547778 304 2210ft 166kts
12-Nov-19 22:46 35.208972 -120.591275 305 1180ft 149kts
12-Nov-19 22:47 35.215078 -120.633242 215 2026ft 131kts
12-Nov-19 22:48 35.181271 -120.667182 236 1800ft 191kts
12-Nov-19 22:50 35.236931 -120.726995 347 2928ft 187kts
12-Nov-19 22:51 35.283359 -120.739900 347 4101ft 169kts
12-Nov-19 22:52 35.314329 -120.774447 283 4102ft 171kts
12-Nov-19 22:53 35.324083 -120.832028 282 4101ft 179kts
12-Nov-19 22:54 35.334165 -120.891899 282 4100ft 179kts
12-Nov-19 22:55 35.351482 -120.946076 343 4125ft 177kts
12-Nov-19 22:56 35.370634 -120.905959 101 3712ft 180kts
12-Nov-19 22:57 35.357750 -120.848079 121 3106ft 178kts
12-Nov-19 22:58 35.329028 -120.800948 124 3093ft 171kts
12-Nov-19 22:59 35.302779 -120.754750 124 2351ft 163kts
12-Nov-19 23:00 35.276999 -120.709844 124 1464ft 160kts
12-Nov-19 23:01 35.251952 -120.666290 124 619ft 159kts
12-Nov-19 23:02 35.233814 -120.634663 102 220ft 15kts
12-Nov-19 23:03 35.236650 -120.636506 354 220ft 0kts

Navigation Log

Ident Type
Flight plan parsing failed, navigation log unavailable